sensor_id;sensor_type;location;lat;lon;timestamp;P1;durP1;ratioP1;P2;durP2;ratioP2
18738;SDS011;9498;51.862;19.460;2023-03-01T00:01:28;116.90;;;39.00;;
18738;SDS011;9498;51.862;19.460;2023-03-01T00:03:56;111.97;;;34.27;;
18738;SDS011;9498;51.862;19.460;2023-03-01T00:06:24;99.47;;;32.90;;
18738;SDS011;9498;51.862;19.460;2023-03-01T00:08:51;105.43;;;33.07;;
18738;SDS011;9498;51.862;19.460;2023-03-01T00:11:19;99.20;;;30.60;;
18738;SDS011;9498;51.862;19.460;2023-03-01T00:13:47;99.37;;;31.53;;
18738;SDS011;9498;51.862;19.460;2023-03-01T00:16:17;120.13;;;32.37;;
18738;SDS011;9498;51.862;19.460;2023-03-01T00:18:45;108.23;;;33.63;;
18738;SDS011;9498;51.862;19.460;2023-03-01T00:21:12;89.77;;;30.93;;
18738;SDS011;9498;51.862;19.460;2023-03-01T00:23:39;91.60;;;30.10;;
18738;SDS011;9498;51.862;19.460;2023-03-01T00:26:07;98.87;;;30.47;;
18738;SDS011;9498;51.862;19.460;2023-03-01T00:28:36;110.00;;;30.87;;
18738;SDS011;9498;51.862;19.460;2023-03-01T00:31:03;94.83;;;30.73;;
18738;SDS011;9498;51.862;19.460;2023-03-01T00:33:32;99.97;;;32.43;;
18738;SDS011;9498;51.862;19.460;2023-03-01T00:35:59;97.33;;;31.20;;
18738;SDS011;9498;51.862;19.460;2023-03-01T00:38:27;87.93;;;30.43;;
18738;SDS011;9498;51.862;19.460;2023-03-01T00:40:54;99.07;;;31.87;;
18738;SDS011;9498;51.862;19.460;2023-03-01T00:43:21;94.57;;;31.70;;
18738;SDS011;9498;51.862;19.460;2023-03-01T00:45:49;104.50;;;31.97;;
18738;SDS011;9498;51.862;19.460;2023-03-01T00:48:16;102.45;;;33.65;;
18738;SDS011;9498;51.862;19.460;2023-03-01T00:50:44;97.57;;;30.80;;
18738;SDS011;9498;51.862;19.460;2023-03-01T00:53:11;88.80;;;30.43;;
18738;SDS011;9498;51.862;19.460;2023-03-01T00:55:39;86.17;;;29.90;;
18738;SDS011;9498;51.862;19.460;2023-03-01T00:58:06;90.17;;;30.33;;
18738;SDS011;9498;51.862;19.460;2023-03-01T01:00:33;95.67;;;31.13;;
18738;SDS011;9498;51.862;19.460;2023-03-01T01:03:01;90.97;;;30.47;;
18738;SDS011;9498;51.862;19.460;2023-03-01T01:05:28;120.60;;;34.23;;
18738;SDS011;9498;51.862;19.460;2023-03-01T01:07:57;104.93;;;32.23;;
18738;SDS011;9498;51.862;19.460;2023-03-01T01:10:24;98.80;;;30.67;;
18738;SDS011;9498;51.862;19.460;2023-03-01T01:12:51;99.07;;;30.98;;
18738;SDS011;9498;51.862;19.460;2023-03-01T01:15:18;89.30;;;30.17;;
18738;SDS011;9498;51.862;19.460;2023-03-01T01:17:46;95.37;;;30.60;;
18738;SDS011;9498;51.862;19.460;2023-03-01T01:20:13;92.20;;;29.50;;
18738;SDS011;9498;51.862;19.460;2023-03-01T01:22:40;91.93;;;31.70;;
18738;SDS011;9498;51.862;19.460;2023-03-01T01:25:09;90.13;;;29.57;;
18738;SDS011;9498;51.862;19.460;2023-03-01T01:27:36;92.17;;;30.70;;
18738;SDS011;9498;51.862;19.460;2023-03-01T01:30:04;91.17;;;32.30;;
18738;SDS011;9498;51.862;19.460;2023-03-01T01:32:31;105.50;;;30.73;;
18738;SDS011;9498;51.862;19.460;2023-03-01T01:34:58;88.20;;;29.97;;
18738;SDS011;9498;51.862;19.460;2023-03-01T01:37:26;83.90;;;28.42;;
18738;SDS011;9498;51.862;19.460;2023-03-01T01:39:56;84.53;;;28.03;;
18738;SDS011;9498;51.862;19.460;2023-03-01T01:42:24;84.87;;;29.27;;
18738;SDS011;9498;51.862;19.460;2023-03-01T01:47:34;94.07;;;31.03;;
18738;SDS011;9498;51.862;19.460;2023-03-01T01:50:01;99.73;;;30.90;;
18738;SDS011;9498;51.862;19.460;2023-03-01T01:52:29;99.13;;;29.07;;
18738;SDS011;9498;51.862;19.460;2023-03-01T01:54:59;99.80;;;31.63;;
18738;SDS011;9498;51.862;19.460;2023-03-01T01:57:30;90.50;;;29.13;;
18738;SDS011;9498;51.862;19.460;2023-03-01T02:00:00;103.27;;;29.80;;
18738;SDS011;9498;51.862;19.460;2023-03-01T02:02:29;102.17;;;31.13;;
18738;SDS011;9498;51.862;19.460;2023-03-01T02:04:58;101.33;;;30.40;;
18738;SDS011;9498;51.862;19.460;2023-03-01T02:07:29;93.23;;;31.57;;
18738;SDS011;9498;51.862;19.460;2023-03-01T02:09:57;94.23;;;30.20;;
18738;SDS011;9498;51.862;19.460;2023-03-01T02:12:25;96.57;;;30.87;;
18738;SDS011;9498;51.862;19.460;2023-03-01T02:14:53;96.63;;;28.57;;
18738;SDS011;9498;51.862;19.460;2023-03-01T02:17:21;83.63;;;27.63;;
18738;SDS011;9498;51.862;19.460;2023-03-01T02:19:52;83.33;;;27.77;;
18738;SDS011;9498;51.862;19.460;2023-03-01T02:22:22;73.73;;;26.53;;
18738;SDS011;9498;51.862;19.460;2023-03-01T02:24:52;82.90;;;27.80;;
18738;SDS011;9498;51.862;19.460;2023-03-01T02:27:26;79.40;;;27.00;;
18738;SDS011;9498;51.862;19.460;2023-03-01T02:29:57;103.53;;;36.13;;
18738;SDS011;9498;51.862;19.460;2023-03-01T02:32:24;94.27;;;31.50;;
18738;SDS011;9498;51.862;19.460;2023-03-01T02:34:51;92.07;;;29.37;;
18738;SDS011;9498;51.862;19.460;2023-03-01T02:37:19;95.33;;;30.87;;
18738;SDS011;9498;51.862;19.460;2023-03-01T02:39:50;90.30;;;28.77;;
18738;SDS011;9498;51.862;19.460;2023-03-01T02:42:28;94.23;;;30.63;;
18738;SDS011;9498;51.862;19.460;2023-03-01T02:44:58;98.50;;;30.77;;
18738;SDS011;9498;51.862;19.460;2023-03-01T02:47:25;104.40;;;32.33;;
18738;SDS011;9498;51.862;19.460;2023-03-01T02:49:53;116.60;;;32.27;;
18738;SDS011;9498;51.862;19.460;2023-03-01T02:52:22;100.53;;;32.43;;
18738;SDS011;9498;51.862;19.460;2023-03-01T02:54:54;95.43;;;30.77;;
18738;SDS011;9498;51.862;19.460;2023-03-01T02:57:24;86.83;;;29.50;;
18738;SDS011;9498;51.862;19.460;2023-03-01T02:59:52;109.20;;;38.25;;
18738;SDS011;9498;51.862;19.460;2023-03-01T03:02:24;94.77;;;30.37;;
18738;SDS011;9498;51.862;19.460;2023-03-01T03:05:01;101.17;;;31.80;;
18738;SDS011;9498;51.862;19.460;2023-03-01T03:07:31;95.77;;;29.07;;
18738;SDS011;9498;51.862;19.460;2023-03-01T03:09:59;92.93;;;29.17;;
18738;SDS011;9498;51.862;19.460;2023-03-01T03:12:26;80.60;;;27.00;;
18738;SDS011;9498;51.862;19.460;2023-03-01T03:14:53;83.40;;;27.70;;
18738;SDS011;9498;51.862;19.460;2023-03-01T03:17:20;77.10;;;26.23;;
18738;SDS011;9498;51.862;19.460;2023-03-01T03:19:49;79.07;;;28.20;;
18738;SDS011;9498;51.862;19.460;2023-03-01T03:22:16;84.77;;;28.53;;
18738;SDS011;9498;51.862;19.460;2023-03-01T03:24:43;101.78;;;34.88;;
18738;SDS011;9498;51.862;19.460;2023-03-01T03:27:10;89.17;;;30.93;;
18738;SDS011;9498;51.862;19.460;2023-03-01T03:29:38;96.03;;;30.47;;
18738;SDS011;9498;51.862;19.460;2023-03-01T03:32:05;98.77;;;30.03;;
18738;SDS011;9498;51.862;19.460;2023-03-01T03:34:32;96.63;;;28.90;;
18738;SDS011;9498;51.862;19.460;2023-03-01T03:37:01;84.77;;;26.97;;
18738;SDS011;9498;51.862;19.460;2023-03-01T03:39:28;91.60;;;28.33;;
18738;SDS011;9498;51.862;19.460;2023-03-01T03:42:00;86.77;;;27.07;;
18738;SDS011;9498;51.862;19.460;2023-03-01T03:44:27;95.07;;;29.83;;
18738;SDS011;9498;51.862;19.460;2023-03-01T03:46:54;77.00;;;28.37;;
18738;SDS011;9498;51.862;19.460;2023-03-01T03:49:21;79.87;;;29.53;;
18738;SDS011;9498;51.862;19.460;2023-03-01T03:51:48;106.40;;;36.60;;
18738;SDS011;9498;51.862;19.460;2023-03-01T03:54:17;94.10;;;29.40;;
18738;SDS011;9498;51.862;19.460;2023-03-01T03:56:44;90.87;;;29.27;;
18738;SDS011;9498;51.862;19.460;2023-03-01T03:59:11;88.00;;;28.50;;
18738;SDS011;9498;51.862;19.460;2023-03-01T04:01:39;82.20;;;28.47;;
18738;SDS011;9498;51.862;19.460;2023-03-01T04:04:06;85.97;;;28.63;;
18738;SDS011;9498;51.862;19.460;2023-03-01T04:06:33;94.47;;;27.97;;
18738;SDS011;9498;51.862;19.460;2023-03-01T04:09:00;84.47;;;27.83;;
18738;SDS011;9498;51.862;19.460;2023-03-01T04:11:29;92.03;;;28.37;;
18738;SDS011;9498;51.862;19.460;2023-03-01T04:13:58;109.10;;;29.53;;
18738;SDS011;9498;51.862;19.460;2023-03-01T04:16:25;92.10;;;29.77;;
18738;SDS011;9498;51.862;19.460;2023-03-01T04:18:52;97.07;;;29.03;;
18738;SDS011;9498;51.862;19.460;2023-03-01T04:21:20;93.13;;;28.57;;
18738;SDS011;9498;51.862;19.460;2023-03-01T04:23:47;89.13;;;29.30;;
18738;SDS011;9498;51.862;19.460;2023-03-01T04:26:17;85.13;;;28.23;;
18738;SDS011;9498;51.862;19.460;2023-03-01T04:28:46;88.20;;;29.17;;
18738;SDS011;9498;51.862;19.460;2023-03-01T04:31:16;91.20;;;29.30;;
18738;SDS011;9498;51.862;19.460;2023-03-01T04:33:46;94.90;;;29.70;;
18738;SDS011;9498;51.862;19.460;2023-03-01T04:36:14;92.13;;;29.27;;
18738;SDS011;9498;51.862;19.460;2023-03-01T04:38:42;84.10;;;26.87;;
18738;SDS011;9498;51.862;19.460;2023-03-01T04:41:12;74.00;;;25.67;;
18738;SDS011;9498;51.862;19.460;2023-03-01T04:43:39;95.68;;;34.97;;
18738;SDS011;9498;51.862;19.460;2023-03-01T04:46:10;87.20;;;30.80;;
18738;SDS011;9498;51.862;19.460;2023-03-01T04:48:38;87.50;;;29.23;;
18738;SDS011;9498;51.862;19.460;2023-03-01T04:51:06;77.87;;;28.13;;
18738;SDS011;9498;51.862;19.460;2023-03-01T04:53:34;81.10;;;26.30;;
18738;SDS011;9498;51.862;19.460;2023-03-01T04:56:03;76.90;;;26.40;;
18738;SDS011;9498;51.862;19.460;2023-03-01T04:58:31;86.73;;;27.00;;
18738;SDS011;9498;51.862;19.460;2023-03-01T05:00:58;93.60;;;27.37;;
18738;SDS011;9498;51.862;19.460;2023-03-01T05:03:27;84.63;;;26.37;;
18738;SDS011;9498;51.862;19.460;2023-03-01T05:05:58;80.33;;;26.57;;
18738;SDS011;9498;51.862;19.460;2023-03-01T05:08:25;84.10;;;28.30;;
18738;SDS011;9498;51.862;19.460;2023-03-01T05:10:52;84.47;;;28.10;;
18738;SDS011;9498;51.862;19.460;2023-03-01T05:13:20;89.73;;;29.50;;
18738;SDS011;9498;51.862;19.460;2023-03-01T05:15:48;77.97;;;28.20;;
18738;SDS011;9498;51.862;19.460;2023-03-01T05:18:15;76.93;;;27.80;;
18738;SDS011;9498;51.862;19.460;2023-03-01T05:20:44;80.10;;;25.83;;
18738;SDS011;9498;51.862;19.460;2023-03-01T05:23:12;80.07;;;28.10;;
18738;SDS011;9498;51.862;19.460;2023-03-01T05:25:39;84.17;;;27.13;;
18738;SDS011;9498;51.862;19.460;2023-03-01T05:28:07;86.23;;;25.63;;
18738;SDS011;9498;51.862;19.460;2023-03-01T05:30:36;70.37;;;26.53;;
18738;SDS011;9498;51.862;19.460;2023-03-01T05:33:05;81.77;;;26.57;;
18738;SDS011;9498;51.862;19.460;2023-03-01T05:35:38;113.18;;;38.63;;
18738;SDS011;9498;51.862;19.460;2023-03-01T05:38:06;117.90;;;40.03;;
18738;SDS011;9498;51.862;19.460;2023-03-01T05:40:34;86.47;;;30.37;;
18738;SDS011;9498;51.862;19.460;2023-03-01T05:43:01;89.77;;;28.77;;
18738;SDS011;9498;51.862;19.460;2023-03-01T05:45:30;90.80;;;30.13;;
18738;SDS011;9498;51.862;19.460;2023-03-01T05:47:58;82.27;;;26.80;;
18738;SDS011;9498;51.862;19.460;2023-03-01T05:50:26;82.83;;;27.17;;
18738;SDS011;9498;51.862;19.460;2023-03-01T05:52:57;81.43;;;27.67;;
18738;SDS011;9498;51.862;19.460;2023-03-01T05:55:28;85.23;;;29.23;;
18738;SDS011;9498;51.862;19.460;2023-03-01T05:57:55;96.63;;;33.07;;
18738;SDS011;9498;51.862;19.460;2023-03-01T06:00:24;74.03;;;26.43;;
18738;SDS011;9498;51.862;19.460;2023-03-01T06:02:53;84.60;;;27.83;;
18738;SDS011;9498;51.862;19.460;2023-03-01T06:05:20;87.47;;;28.70;;
18738;SDS011;9498;51.862;19.460;2023-03-01T06:07:47;86.53;;;29.95;;
18738;SDS011;9498;51.862;19.460;2023-03-01T06:10:15;78.87;;;29.70;;
18738;SDS011;9498;51.862;19.460;2023-03-01T06:12:44;70.80;;;26.87;;
18738;SDS011;9498;51.862;19.460;2023-03-01T06:15:12;87.57;;;27.33;;
18738;SDS011;9498;51.862;19.460;2023-03-01T06:17:40;80.57;;;27.50;;
18738;SDS011;9498;51.862;19.460;2023-03-01T06:20:09;92.67;;;31.00;;
18738;SDS011;9498;51.862;19.460;2023-03-01T06:22:36;92.60;;;29.17;;
18738;SDS011;9498;51.862;19.460;2023-03-01T06:25:04;100.43;;;32.90;;
18738;SDS011;9498;51.862;19.460;2023-03-01T06:27:31;101.93;;;35.40;;
18738;SDS011;9498;51.862;19.460;2023-03-01T06:30:00;103.60;;;35.10;;
18738;SDS011;9498;51.862;19.460;2023-03-01T06:32:27;108.13;;;37.43;;
18738;SDS011;9498;51.862;19.460;2023-03-01T06:34:55;104.93;;;34.73;;
18738;SDS011;9498;51.862;19.460;2023-03-01T06:37:23;120.63;;;39.23;;
18738;SDS011;9498;51.862;19.460;2023-03-01T06:39:50;123.90;;;42.70;;
18738;SDS011;9498;51.862;19.460;2023-03-01T06:42:17;160.57;;;49.83;;
18738;SDS011;9498;51.862;19.460;2023-03-01T06:44:45;155.60;;;49.20;;
18738;SDS011;9498;51.862;19.460;2023-03-01T06:47:13;168.03;;;51.70;;
18738;SDS011;9498;51.862;19.460;2023-03-01T06:49:40;149.20;;;49.57;;
18738;SDS011;9498;51.862;19.460;2023-03-01T06:52:08;146.87;;;48.30;;
18738;SDS011;9498;51.862;19.460;2023-03-01T06:54:35;146.37;;;49.00;;
18738;SDS011;9498;51.862;19.460;2023-03-01T06:57:02;140.53;;;46.93;;
18738;SDS011;9498;51.862;19.460;2023-03-01T06:59:29;149.57;;;48.00;;
18738;SDS011;9498;51.862;19.460;2023-03-01T07:01:57;141.93;;;47.70;;
18738;SDS011;9498;51.862;19.460;2023-03-01T07:04:25;167.00;;;51.43;;
18738;SDS011;9498;51.862;19.460;2023-03-01T07:06:53;157.97;;;48.73;;
18738;SDS011;9498;51.862;19.460;2023-03-01T07:09:20;150.33;;;51.10;;
18738;SDS011;9498;51.862;19.460;2023-03-01T07:11:48;160.47;;;52.77;;
18738;SDS011;9498;51.862;19.460;2023-03-01T07:14:15;161.80;;;51.23;;
18738;SDS011;9498;51.862;19.460;2023-03-01T07:16:42;157.30;;;52.00;;
18738;SDS011;9498;51.862;19.460;2023-03-01T07:19:09;170.07;;;55.40;;
18738;SDS011;9498;51.862;19.460;2023-03-01T07:21:38;155.57;;;53.60;;
18738;SDS011;9498;51.862;19.460;2023-03-01T07:24:06;161.10;;;50.40;;
18738;SDS011;9498;51.862;19.460;2023-03-01T07:26:33;152.93;;;52.27;;
18738;SDS011;9498;51.862;19.460;2023-03-01T07:29:00;160.83;;;50.10;;
18738;SDS011;9498;51.862;19.460;2023-03-01T07:31:27;157.27;;;50.27;;
18738;SDS011;9498;51.862;19.460;2023-03-01T07:33:55;143.93;;;49.13;;
18738;SDS011;9498;51.862;19.460;2023-03-01T07:36:22;141.27;;;46.27;;
18738;SDS011;9498;51.862;19.460;2023-03-01T07:38:51;141.40;;;47.67;;
18738;SDS011;9498;51.862;19.460;2023-03-01T07:41:18;151.50;;;48.73;;
18738;SDS011;9498;51.862;19.460;2023-03-01T07:43:45;152.20;;;49.90;;
18738;SDS011;9498;51.862;19.460;2023-03-01T07:46:12;141.20;;;47.53;;
18738;SDS011;9498;51.862;19.460;2023-03-01T07:48:40;158.37;;;51.53;;
18738;SDS011;9498;51.862;19.460;2023-03-01T07:51:07;154.20;;;48.80;;
18738;SDS011;9498;51.862;19.460;2023-03-01T07:53:34;154.60;;;48.60;;
18738;SDS011;9498;51.862;19.460;2023-03-01T07:56:03;138.13;;;46.07;;
18738;SDS011;9498;51.862;19.460;2023-03-01T07:58:31;132.40;;;43.63;;
18738;SDS011;9498;51.862;19.460;2023-03-01T08:01:00;134.87;;;45.43;;
18738;SDS011;9498;51.862;19.460;2023-03-01T08:03:28;131.37;;;45.80;;
18738;SDS011;9498;51.862;19.460;2023-03-01T08:05:55;125.53;;;42.23;;
18738;SDS011;9498;51.862;19.460;2023-03-01T08:08:23;112.80;;;38.00;;
18738;SDS011;9498;51.862;19.460;2023-03-01T08:10:50;106.93;;;35.23;;
18738;SDS011;9498;51.862;19.460;2023-03-01T08:13:19;96.23;;;35.33;;
18738;SDS011;9498;51.862;19.460;2023-03-01T08:15:47;89.67;;;32.10;;
18738;SDS011;9498;51.862;19.460;2023-03-01T08:18:15;92.50;;;32.87;;
18738;SDS011;9498;51.862;19.460;2023-03-01T08:20:42;97.13;;;34.63;;
18738;SDS011;9498;51.862;19.460;2023-03-01T08:23:09;98.60;;;35.10;;
18738;SDS011;9498;51.862;19.460;2023-03-01T08:25:36;104.77;;;34.03;;
18738;SDS011;9498;51.862;19.460;2023-03-01T08:28:04;90.17;;;31.30;;
18738;SDS011;9498;51.862;19.460;2023-03-01T08:30:33;83.73;;;30.43;;
18738;SDS011;9498;51.862;19.460;2023-03-01T08:33:00;81.10;;;29.57;;
18738;SDS011;9498;51.862;19.460;2023-03-01T08:35:27;95.73;;;32.63;;
18738;SDS011;9498;51.862;19.460;2023-03-01T08:37:54;83.13;;;31.57;;
18738;SDS011;9498;51.862;19.460;2023-03-01T08:40:21;99.43;;;34.67;;
18738;SDS011;9498;51.862;19.460;2023-03-01T08:42:48;101.97;;;33.63;;
18738;SDS011;9498;51.862;19.460;2023-03-01T08:45:16;91.10;;;34.37;;
18738;SDS011;9498;51.862;19.460;2023-03-01T08:47:45;89.00;;;32.80;;
18738;SDS011;9498;51.862;19.460;2023-03-01T08:50:12;89.33;;;33.00;;
18738;SDS011;9498;51.862;19.460;2023-03-01T08:52:39;81.50;;;29.93;;
18738;SDS011;9498;51.862;19.460;2023-03-01T08:55:07;86.73;;;30.70;;
18738;SDS011;9498;51.862;19.460;2023-03-01T08:57:34;79.43;;;29.67;;
18738;SDS011;9498;51.862;19.460;2023-03-01T09:00:02;86.60;;;30.80;;
18738;SDS011;9498;51.862;19.460;2023-03-01T09:02:33;81.77;;;29.73;;
18738;SDS011;9498;51.862;19.460;2023-03-01T09:05:02;76.73;;;27.50;;
18738;SDS011;9498;51.862;19.460;2023-03-01T09:07:29;71.17;;;26.00;;
18738;SDS011;9498;51.862;19.460;2023-03-01T09:09:56;64.60;;;22.77;;
18738;SDS011;9498;51.862;19.460;2023-03-01T09:12:23;67.00;;;22.17;;
18738;SDS011;9498;51.862;19.460;2023-03-01T09:14:51;57.67;;;21.23;;
18738;SDS011;9498;51.862;19.460;2023-03-01T09:17:18;59.50;;;22.77;;
18738;SDS011;9498;51.862;19.460;2023-03-01T09:19:46;60.23;;;22.70;;
18738;SDS011;9498;51.862;19.460;2023-03-01T09:22:15;54.23;;;20.20;;
18738;SDS011;9498;51.862;19.460;2023-03-01T09:24:43;48.77;;;17.17;;
18738;SDS011;9498;51.862;19.460;2023-03-01T09:27:10;32.60;;;12.77;;
18738;SDS011;9498;51.862;19.460;2023-03-01T09:29:39;29.53;;;11.37;;
18738;SDS011;9498;51.862;19.460;2023-03-01T09:32:07;25.87;;;9.17;;
18738;SDS011;9498;51.862;19.460;2023-03-01T09:34:34;28.07;;;10.17;;
18738;SDS011;9498;51.862;19.460;2023-03-01T09:37:23;28.67;;;10.90;;
18738;SDS011;9498;51.862;19.460;2023-03-01T09:39:50;29.07;;;10.50;;
18738;SDS011;9498;51.862;19.460;2023-03-01T09:42:17;29.60;;;11.03;;
18738;SDS011;9498;51.862;19.460;2023-03-01T09:44:46;27.27;;;11.47;;
18738;SDS011;9498;51.862;19.460;2023-03-01T09:47:16;32.83;;;11.63;;
18738;SDS011;9498;51.862;19.460;2023-03-01T09:49:45;34.10;;;12.00;;
18738;SDS011;9498;51.862;19.460;2023-03-01T09:52:19;28.57;;;9.67;;
18738;SDS011;9498;51.862;19.460;2023-03-01T09:54:49;23.53;;;9.57;;
18738;SDS011;9498;51.862;19.460;2023-03-01T09:57:17;22.90;;;9.83;;
18738;SDS011;9498;51.862;19.460;2023-03-01T09:59:49;27.60;;;10.43;;
18738;SDS011;9498;51.862;19.460;2023-03-01T10:02:23;25.80;;;9.43;;
18738;SDS011;9498;51.862;19.460;2023-03-01T10:04:51;28.60;;;9.83;;
18738;SDS011;9498;51.862;19.460;2023-03-01T10:07:21;26.80;;;9.87;;
18738;SDS011;9498;51.862;19.460;2023-03-01T10:09:54;19.87;;;8.20;;
18738;SDS011;9498;51.862;19.460;2023-03-01T10:12:22;23.53;;;7.77;;
18738;SDS011;9498;51.862;19.460;2023-03-01T10:14:53;19.97;;;7.70;;
18738;SDS011;9498;51.862;19.460;2023-03-01T10:17:24;20.20;;;8.10;;
18738;SDS011;9498;51.862;19.460;2023-03-01T10:19:52;18.40;;;7.73;;
18738;SDS011;9498;51.862;19.460;2023-03-01T10:22:21;20.83;;;8.23;;
18738;SDS011;9498;51.862;19.460;2023-03-01T10:24:49;19.47;;;7.87;;
18738;SDS011;9498;51.862;19.460;2023-03-01T10:27:19;18.97;;;6.93;;
18738;SDS011;9498;51.862;19.460;2023-03-01T10:29:49;15.77;;;6.97;;
18738;SDS011;9498;51.862;19.460;2023-03-01T10:32:21;16.23;;;6.50;;
18738;SDS011;9498;51.862;19.460;2023-03-01T10:34:48;17.57;;;8.00;;
18738;SDS011;9498;51.862;19.460;2023-03-01T10:37:16;21.07;;;7.80;;
18738;SDS011;9498;51.862;19.460;2023-03-01T10:39:58;20.33;;;7.80;;
18738;SDS011;9498;51.862;19.460;2023-03-01T10:42:32;19.90;;;7.50;;
18738;SDS011;9498;51.862;19.460;2023-03-01T10:45:14;15.13;;;6.47;;
18738;SDS011;9498;51.862;19.460;2023-03-01T10:47:41;18.30;;;6.47;;
18738;SDS011;9498;51.862;19.460;2023-03-01T10:50:17;19.23;;;6.40;;
18738;SDS011;9498;51.862;19.460;2023-03-01T10:52:55;12.37;;;6.03;;
18738;SDS011;9498;51.862;19.460;2023-03-01T10:55:24;17.70;;;5.37;;
18738;SDS011;9498;51.862;19.460;2023-03-01T10:58:05;18.20;;;6.27;;
18738;SDS011;9498;51.862;19.460;2023-03-01T11:00:33;17.77;;;6.40;;
18738;SDS011;9498;51.862;19.460;2023-03-01T11:03:09;18.17;;;6.83;;
18738;SDS011;9498;51.862;19.460;2023-03-01T11:05:39;18.67;;;5.90;;
18738;SDS011;9498;51.862;19.460;2023-03-01T11:08:25;14.53;;;6.07;;
18738;SDS011;9498;51.862;19.460;2023-03-01T11:11:03;13.90;;;5.80;;
18738;SDS011;9498;51.862;19.460;2023-03-01T11:13:32;16.87;;;7.10;;
18738;SDS011;9498;51.862;19.460;2023-03-01T11:16:00;18.07;;;6.90;;
18738;SDS011;9498;51.862;19.460;2023-03-01T11:18:29;9.33;;;4.60;;
18738;SDS011;9498;51.862;19.460;2023-03-01T11:20:56;14.30;;;5.77;;
18738;SDS011;9498;51.862;19.460;2023-03-01T11:23:25;22.30;;;6.60;;
18738;SDS011;9498;51.862;19.460;2023-03-01T11:25:55;13.67;;;5.77;;
18738;SDS011;9498;51.862;19.460;2023-03-01T11:28:22;17.40;;;6.50;;
18738;SDS011;9498;51.862;19.460;2023-03-01T11:30:53;15.43;;;5.60;;
18738;SDS011;9498;51.862;19.460;2023-03-01T11:33:24;17.73;;;7.83;;
18738;SDS011;9498;51.862;19.460;2023-03-01T11:36:00;15.80;;;6.37;;
18738;SDS011;9498;51.862;19.460;2023-03-01T11:38:29;19.63;;;6.87;;
18738;SDS011;9498;51.862;19.460;2023-03-01T11:40:59;14.10;;;5.97;;
18738;SDS011;9498;51.862;19.460;2023-03-01T11:43:31;15.03;;;5.67;;
18738;SDS011;9498;51.862;19.460;2023-03-01T11:49:03;15.50;;;6.33;;
18738;SDS011;9498;51.862;19.460;2023-03-01T11:51:37;14.20;;;5.97;;
18738;SDS011;9498;51.862;19.460;2023-03-01T11:54:18;13.87;;;6.17;;
18738;SDS011;9498;51.862;19.460;2023-03-01T11:56:49;18.13;;;7.20;;
18738;SDS011;9498;51.862;19.460;2023-03-01T12:02:12;14.23;;;5.87;;
18738;SDS011;9498;51.862;19.460;2023-03-01T12:04:49;12.77;;;6.00;;
18738;SDS011;9498;51.862;19.460;2023-03-01T12:07:20;15.87;;;5.80;;
18738;SDS011;9498;51.862;19.460;2023-03-01T12:10:01;15.90;;;6.00;;
18738;SDS011;9498;51.862;19.460;2023-03-01T12:12:35;16.57;;;6.90;;
18738;SDS011;9498;51.862;19.460;2023-03-01T12:15:08;15.27;;;6.67;;
18738;SDS011;9498;51.862;19.460;2023-03-01T12:17:51;16.23;;;5.83;;
18738;SDS011;9498;51.862;19.460;2023-03-01T12:20:26;17.10;;;5.83;;
18738;SDS011;9498;51.862;19.460;2023-03-01T12:22:59;18.77;;;6.57;;
18738;SDS011;9498;51.862;19.460;2023-03-01T12:25:30;14.13;;;5.87;;
18738;SDS011;9498;51.862;19.460;2023-03-01T12:28:08;15.13;;;6.63;;
18738;SDS011;9498;51.862;19.460;2023-03-01T12:30:47;14.77;;;5.27;;
18738;SDS011;9498;51.862;19.460;2023-03-01T12:33:21;15.33;;;6.67;;
18738;SDS011;9498;51.862;19.460;2023-03-01T12:35:52;11.17;;;5.07;;
18738;SDS011;9498;51.862;19.460;2023-03-01T12:38:29;12.33;;;5.03;;
18738;SDS011;9498;51.862;19.460;2023-03-01T12:43:51;8.07;;;3.40;;
18738;SDS011;9498;51.862;19.460;2023-03-01T12:46:25;14.13;;;5.47;;
18738;SDS011;9498;51.862;19.460;2023-03-01T12:48:59;18.17;;;6.77;;
18738;SDS011;9498;51.862;19.460;2023-03-01T12:51:30;15.37;;;6.63;;
18738;SDS011;9498;51.862;19.460;2023-03-01T12:53:59;15.77;;;6.30;;
18738;SDS011;9498;51.862;19.460;2023-03-01T12:56:29;18.07;;;6.20;;
18738;SDS011;9498;51.862;19.460;2023-03-01T12:58:59;12.17;;;4.70;;
18738;SDS011;9498;51.862;19.460;2023-03-01T13:01:33;12.23;;;5.53;;
18738;SDS011;9498;51.862;19.460;2023-03-01T13:04:14;17.87;;;6.87;;
18738;SDS011;9498;51.862;19.460;2023-03-01T13:06:44;20.67;;;6.73;;
18738;SDS011;9498;51.862;19.460;2023-03-01T13:09:17;17.93;;;7.17;;
18738;SDS011;9498;51.862;19.460;2023-03-01T13:11:46;21.37;;;7.10;;
18738;SDS011;9498;51.862;19.460;2023-03-01T13:16:59;15.37;;;5.63;;
18738;SDS011;9498;51.862;19.460;2023-03-01T13:19:28;12.00;;;5.50;;
18738;SDS011;9498;51.862;19.460;2023-03-01T13:21:57;15.20;;;5.83;;
18738;SDS011;9498;51.862;19.460;2023-03-01T13:24:25;14.53;;;6.10;;
18738;SDS011;9498;51.862;19.460;2023-03-01T13:29:44;15.90;;;7.47;;
18738;SDS011;9498;51.862;19.460;2023-03-01T13:32:22;15.37;;;6.03;;
18738;SDS011;9498;51.862;19.460;2023-03-01T13:34:54;15.17;;;6.13;;
18738;SDS011;9498;51.862;19.460;2023-03-01T13:37:23;13.90;;;5.87;;
18738;SDS011;9498;51.862;19.460;2023-03-01T13:39:54;13.43;;;5.93;;
18738;SDS011;9498;51.862;19.460;2023-03-01T13:42:30;15.10;;;6.47;;
18738;SDS011;9498;51.862;19.460;2023-03-01T13:44:58;15.13;;;6.37;;
18738;SDS011;9498;51.862;19.460;2023-03-01T13:47:25;12.83;;;5.77;;
18738;SDS011;9498;51.862;19.460;2023-03-01T13:49:56;15.63;;;6.07;;
18738;SDS011;9498;51.862;19.460;2023-03-01T13:52:37;18.40;;;6.80;;
18738;SDS011;9498;51.862;19.460;2023-03-01T13:55:06;15.60;;;7.17;;
18738;SDS011;9498;51.862;19.460;2023-03-01T13:57:42;15.87;;;6.40;;
18738;SDS011;9498;51.862;19.460;2023-03-01T14:00:24;14.50;;;6.77;;
18738;SDS011;9498;51.862;19.460;2023-03-01T14:02:59;21.50;;;6.40;;
18738;SDS011;9498;51.862;19.460;2023-03-01T14:05:27;15.77;;;6.87;;
18738;SDS011;9498;51.862;19.460;2023-03-01T14:07:55;14.53;;;6.50;;
18738;SDS011;9498;51.862;19.460;2023-03-01T14:10:22;16.37;;;6.50;;
18738;SDS011;9498;51.862;19.460;2023-03-01T14:12:53;17.57;;;6.63;;
18738;SDS011;9498;51.862;19.460;2023-03-01T14:15:22;20.27;;;6.70;;
18738;SDS011;9498;51.862;19.460;2023-03-01T14:17:55;16.23;;;7.07;;
18738;SDS011;9498;51.862;19.460;2023-03-01T14:20:24;18.00;;;6.70;;
18738;SDS011;9498;51.862;19.460;2023-03-01T14:22:54;13.77;;;6.47;;
18738;SDS011;9498;51.862;19.460;2023-03-01T14:25:23;17.73;;;6.60;;
18738;SDS011;9498;51.862;19.460;2023-03-01T14:27:51;14.93;;;6.43;;
18738;SDS011;9498;51.862;19.460;2023-03-01T14:30:21;17.33;;;6.63;;
18738;SDS011;9498;51.862;19.460;2023-03-01T14:32:54;15.83;;;6.33;;
18738;SDS011;9498;51.862;19.460;2023-03-01T14:35:22;15.60;;;6.73;;
18738;SDS011;9498;51.862;19.460;2023-03-01T14:37:50;18.27;;;7.53;;
18738;SDS011;9498;51.862;19.460;2023-03-01T14:40:24;17.40;;;7.00;;
18738;SDS011;9498;51.862;19.460;2023-03-01T14:42:52;13.90;;;6.73;;
18738;SDS011;9498;51.862;19.460;2023-03-01T14:45:20;14.67;;;7.13;;
18738;SDS011;9498;51.862;19.460;2023-03-01T14:47:47;14.17;;;6.70;;
18738;SDS011;9498;51.862;19.460;2023-03-01T14:50:24;18.77;;;6.73;;
18738;SDS011;9498;51.862;19.460;2023-03-01T14:52:53;15.23;;;6.43;;